Paul R Tregurtha — WYR4481 — position and weather

sailwx.info

Track history (hours):
 
Tides and Currents Weather Stations Pressure Air Temp Water Temp Dewpoint Dewpoint Depression Visibility Wind Speed Wind Dir Waves Ship Positions

Paul R Tregurtha

Owner: THE INTERLAKE STEAMSHIP COMPANY, Middleburg Heights, OH. More information available from US FCC via Universal Licensing System and Coast Guard Vessel Documentation Center.

Last reported at 2017-Apr-27 17:00 UTC. Time now 2017-Apr-27 18:46 UTC.
Position N 45°24' W 083°24'.

Length 309 m; draft 7.1 m.

Type: Cargo ship. MMSI: 366904940.

Wind from 150 at 23 knots

Barometer 995.4 mb
Air temperature 11.1 ° C
Water temperature 2.8 ° C

Date/timePositionNaut miles runAvg speedWind from/ knotsBaromVisibWave heightAir tempDewpointWater temp
2017-Apr-27 17:00N 45°24' W 083°24'1514.7 150 / 23995.4 11.1 2.8
2017-Apr-27 16:00N 45°12' W 083°12'1312.7 150 / 26996.1 5.4 11.8 3.0
2017-Apr-27 15:00N 45°00' W 083°06'1312.7 150 / 13997.1 9.5 3.5
2017-Apr-27 14:00N 44°48' W 083°00'1312.7 170 / 18997.8 10.3 3.0
2017-Apr-27 13:00N 44°36' W 082°54'1312.7 170 / 21998.1 10.1 3.3
2017-Apr-27 12:00N 44°24' W 082°48'2512.7 170 / 17998.1 9.5 3.3
2017-Apr-27 10:00N 44°00' W 082°36'1312.8 160 / 17999.4 11.1 3.6
2017-Apr-27 09:00N 43°48' W 082°30'1818.0 170 / 14999.8 6.8 4.2
2017-Apr-27 08:00N 43°30' W 082°30'1312.8 160 / 141000.510.8 14.2 5.1
2017-Apr-27 07:00N 43°18' W 082°24'1212.0 170 / 131001.5 16.8 6.5
2017-Apr-27 06:00N 43°06' W 082°24'6 6.0 170 / 121001.5 15.2 6.4
2017-Apr-27 05:00N 43°00' W 082°24'1312.8 180 / 101002.2 18.4 7.8
2017-Apr-27 04:00N 42°48' W 082°30'6 6.0 170 / 91002.5 16.4 8.0
2017-Apr-27 03:00N 42°42' W 082°30'1312.8 130 / 91002.2 14.8 8.2
2017-Apr-27 02:00N 42°30' W 082°36'1110.7 130 / 131001.6 16.2 8.7
2017-Apr-27 01:00N 42°24' W 082°48'1110.7 150 / 141001.0 13.4 10.7
2017-Apr-27 00:00N 42°18' W 083°00'4 4.4 140 / 71001.0 21.5 12.6
2017-Apr-26 23:00N 42°18' W 083°06'0 0.0 130 / 31001.0 24.4 11.8
2017-Apr-26 22:00N 42°18' W 083°06'0 0.0 160 / 51001.3 25.8 11.8
2017-Apr-26 21:00N 42°18' W 083°06'6 6.0 150 / 51001.3 25.3 11.6
2017-Apr-26 20:00N 42°12' W 083°06'6 6.0 160 / 111001.6 23.0 11.8
2017-Apr-26 19:00N 42°06' W 083°06'1212.0 170 / 111001.9 15.4 12.0
2017-Apr-26 18:00N 41°54' W 083°06'9 8.9 130 / 201001.9 13.9 11.6
2017-Apr-26 17:00N 41°54' W 083°18'0 0.0 120 / 131003.6 16.2 13.4
2017-Apr-26 16:00N 41°54' W 083°18'0 0.0 140 / 31004.6 16.4 13.9
2017-Apr-26 15:00N 41°54' W 083°18'0 0.0 130 / 41005.6 17.7 13.9
2017-Apr-26 14:00N 41°54' W 083°18'0 0.0 130 / 31005.9 16.4 13.9
2017-Apr-26 13:00N 41°54' W 083°18'0 0.0 120 / 41005.9 15.7 13.8
2017-Apr-26 12:00N 41°54' W 083°18'0 0.0 060 / 41006.3 15.1 13.8
2017-Apr-26 11:00N 41°54' W 083°18'0 0.0 130 / 71005.9 14.7 13.9
2017-Apr-26 10:00N 41°54' W 083°18'0 0.0 240 / 21005.9 13.2 13.8
2017-Apr-26 09:00N 41°54' W 083°18'0 0.0 260 / 11005.9 13.5 13.8
2017-Apr-26 08:00N 41°54' W 083°18'0 0.0 150 / 61005.9 13.1 13.9
2017-Apr-26 07:00N 41°54' W 083°18'0 0.0 110 / 31006.3 14.5 13.7
2017-Apr-26 06:00N 41°54' W 083°18'9 8.9 100 / 141006.9 13.4 11.5
2017-Apr-26 05:00N 41°54' W 083°06'1212.0 060 / 41006.6 11.8 11.4
2017-Apr-26 04:00N 42°06' W 083°06'1212.0 080 / 31007.3 13.7 10.9
2017-Apr-26 03:00N 42°18' W 083°06'9 8.9 030 / 71007.4 13.3 11.0
2017-Apr-26 02:00N 42°18' W 082°54'1514.9 050 / 101007.4 14.2 10.4
2017-Apr-26 01:00N 42°30' W 082°42'7 7.5 090 / 121007.4 11.6 8.6
2017-Apr-26 00:00N 42°36' W 082°36'7 7.4 080 / 101007.9 16.4 7.8
2017-Apr-25 23:00N 42°42' W 082°30'6 6.0 030 / 31008.3 17.8 8.3
2017-Apr-25 22:00N 42°48' W 082°30'0 0.0 110 / 21008.6 20.6 10.2
2017-Apr-25 21:00N 42°48' W 082°30'0 0.0 1008.9 19.9 10.0
2017-Apr-25 20:00N 42°48' W 082°30'0 0.0 020 / 21009.3 19.4 10.4
2017-Apr-25 19:00N 42°48' W 082°30'0 0.0 320 / 31010.3 18.2 10.0
2017-Apr-25 18:00N 42°48' W 082°30'0 0.0 020 / 21011.0 16.6 9.9
2017-Apr-25 17:00N 42°48' W 082°30'0 0.0 280 / 21012.0 14.6 9.9
2017-Apr-25 16:00N 42°48' W 082°30'0 0.0 130 / 31012.7 12.8 9.8
2017-Apr-25 15:00N 42°48' W 082°30'0 0.0 1013.0 10.9 9.9
2017-Apr-25 14:00N 42°48' W 082°30'0 0.0 130 / 31013.0 11.8 10.0
2017-Apr-25 13:00N 42°48' W 082°30'0 0.0 340 / 31013.0 11.8 9.7
2017-Apr-25 12:00N 42°48' W 082°30'0 0.0 130 / 51013.0 11.2 9.6
2017-Apr-25 11:00N 42°48' W 082°30'7 7.4 040 / 31013.0 9.2 7.7
2017-Apr-25 10:00N 42°54' W 082°24'1212.0 060 / 71013.0 9.8 7.2
2017-Apr-25 09:00N 43°06' W 082°24'1212.0 020 / 71013.3 7.6 6.5
2017-Apr-25 08:00N 43°18' W 082°24'1212.0 030 / 61013.310.8 6.0 3.9
2017-Apr-25 07:00N 43°30' W 082°24'1212.0 080 / 61013.3 6.8 3.2
2017-Apr-25 06:00N 43°42' W 082°24'1212.0 120 / 51014.0 6.1 3.2
2017-Apr-25 05:00N 43°54' W 082°24'1312.8 150 / 61014.3 6.7 3.0
2017-Apr-25 04:00N 44°06' W 082°30'1312.7 150 / 91014.7 7.2 3.0
2017-Apr-25 03:00N 44°18' W 082°36'10912.1 120 / 81014.7 6.7 3.1
2017-Apr-24 18:00N 45°54' W 083°48'1010.3 110 / 71020.4 3.2 3.0
2017-Apr-24 17:00N 46°00' W 084°00'1312.7 080 / 101020.4 3.5 4.6
2017-Apr-24 16:00N 46°12' W 084°06'7 7.3 100 / 121021.1 3.2 4.3
2017-Apr-24 15:00N 46°18' W 084°12'6 6.0 140 / 111021.8 3.5 3.4
2017-Apr-24 14:00N 46°24' W 084°12'7 7.3 120 / 101021.8 2.0 2.9
2017-Apr-24 13:00N 46°30' W 084°18'4 4.1 130 / 121022.1 2.1 2.9
2017-Apr-24 12:00N 46°30' W 084°24'0 0.0 150 / 81023.0 2.1 3.0
2017-Apr-24 11:00N 46°30' W 084°24'4 4.1 130 / 71021.3 1.8 2.8
2017-Apr-24 10:00N 46°30' W 084°30'4 4.1 120 / 121020.3 1.8 2.1
2017-Apr-24 09:00N 46°30' W 084°36'1514.6 140 / 41021.0 1.4 1.4
2017-Apr-24 08:00N 46°42' W 084°48'1010.2 350 / 51021.3 0.8 1.4
2017-Apr-24 07:00N 46°48' W 085°00'1413.7 120 / 21021.7 0.8 2.1
2017-Apr-24 06:00N 46°54' W 085°18'1413.7 020 / 41021.7 0.6 2.3
2017-Apr-24 05:00N 47°00' W 085°36'6212.4 020 / 31022.0 0.5 2.6
2017-Apr-24 00:00N 47°24' W 087°00'1413.6 300 / 71022.7 -1.1 3.4
2017-Apr-23 23:00N 47°30' W 087°18'1413.5 300 / 51023.0 -1.3 3.1
2017-Apr-23 22:00N 47°36' W 087°36'1212.1 300 / 21023.4 -1.5 2.9
2017-Apr-23 21:00N 47°36' W 087°54'1212.1 070 / 21023.4 -1.6 3.1
2017-Apr-23 20:00N 47°36' W 088°12'1212.1 080 / 41023.7 -1.5 3.1
2017-Apr-23 19:00N 47°36' W 088°30'1413.5 060 / 61024.010.8 -1.4 3.1
2017-Apr-23 18:00N 47°30' W 088°48'1212.2 070 / 81024.0 -1.2 3.0
2017-Apr-23 17:00N 47°30' W 089°06'1413.6 070 / 101024.0 -1.2 2.9
2017-Apr-23 16:00N 47°24' W 089°24'1212.2 080 / 121023.710.8 -0.3 2.9
2017-Apr-23 15:00N 47°24' W 089°42'1212.2 020 / 71023.7 0.5 3.0
2017-Apr-23 14:00N 47°24' W 090°00'1413.6 040 / 81023.7 0.8 2.9
2017-Apr-23 13:00N 47°18' W 090°18'1212.2 060 / 101023.4 5.4 1.2 2.7
2017-Apr-23 12:00N 47°18' W 090°36'1010.1 290 / 41023.0 1.2 2.7
2017-Apr-23 11:00N 47°12' W 090°48'1413.6 060 / 151021.7 0.1 3.3
2017-Apr-23 10:00N 47°06' W 091°06'1413.7 040 / 61021.7 0.9 3.5
2017-Apr-23 09:00N 47°00' W 091°24'313.6 020 / 71021.3 2.5 3.4
2017-Apr-23 08:48N 46°60' W 091°28'412.4
2017-Apr-23 08:30N 46°58' W 091°33'612.4
2017-Apr-23 08:01N 46°55' W 091°41'2100.2
2017-Apr-23 08:00N 46°54' W 091°42'510.1 020 / 41020.7 4.2 3.4
2017-Apr-23 07:31N 46°53' W 091°49'612.4
2017-Apr-23 07:00N 46°50' W 091°57'3230.9
2017-Apr-23 07:00N 46°48' W 091°54'714.8 1020.3 7.0 3.6
2017-Apr-23 06:30N 46°47' W 092°04'2 4.6
2017-Apr-23 06:00N 46°45' W 092°06'3256.4
2017-Apr-23 06:00N 46°48' W 092°06'3 5.2 050 / 101019.0 8.7 9.2
2017-Apr-23 05:19N 46°45' W 092°07'3 8.0
2017-Apr-23 05:00N 46°42' W 092°06'315.5 010 / 41019.0 10.2 10.1
2017-Apr-23 04:49N 46°45' W 092°07'0 0.0
2017-Apr-23 04:22N 46°45' W 092°07'3 7.0
2017-Apr-23 04:00N 46°42' W 092°06'321.9 050 / 51019.0 11.8 10.4
2017-Apr-23 03:52N 46°45' W 092°07'0 0.0
2017-Apr-23 03:22N 46°45' W 092°07'3 7.0
2017-Apr-23 03:00N 46°42' W 092°06'315.5 040 / 61017.6 14.2 10.0
2017-Apr-23 02:49N 46°45' W 092°07'0 0.0
2017-Apr-23 02:22N 46°45' W 092°07'3 7.0
2017-Apr-23 02:00N 46°42' W 092°06'337.4 350 / 51017.6 16.0 10.1
2017-Apr-23 01:55N 46°45' W 092°07'0 0.0
2017-Apr-23 01:25N 46°45' W 092°07'3 6.2
2017-Apr-23 01:00N 46°42' W 092°06'337.0 160 / 51016.9 19.1 9.4
2017-Apr-23 00:55N 46°45' W 092°07'0 0.0
2017-Apr-23 00:25N 46°45' W 092°07'3 6.2
2017-Apr-23 00:00N 46°42' W 092°06'337.0 260 / 81016.9 20.4 9.3
2017-Apr-22 23:55N 46°45' W 092°07'0 0.0
2017-Apr-22 23:25N 46°45' W 092°07'3 6.2
2017-Apr-22 23:00N 46°42' W 092°06'3127.1 270 / 111017.610.8 21.1 9.1
2017-Apr-22 22:58N 46°45' W 092°07'0 0.0
2017-Apr-22 22:28N 46°45' W 092°07'0 0.0
2017-Apr-22 21:58N 46°45' W 092°07'0 0.0
2017-Apr-22 21:28N 46°45' W 092°07'0 0.0
2017-Apr-22 20:55N 46°45' W 092°07'0 0.0
2017-Apr-22 20:28N 46°45' W 092°07'0 0.0
2017-Apr-22 19:55N 46°45' W 092°07'0 0.0
2017-Apr-22 19:28N 46°45' W 092°07'0 0.0
2017-Apr-22 18:58N 46°45' W 092°07'1 2.0
2017-Apr-22 18:30N 46°45' W 092°06'2 3.5
2017-Apr-22 18:00N 46°47' W 092°06'612.2
2017-Apr-22 17:30N 46°49' W 091°57'713.1
2017-Apr-22 17:00N 46°52' W 091°48'713.1
2017-Apr-22 16:31N 46°54' W 091°39'713.0
2017-Apr-22 16:00N 46°56' W 091°30'  
Track history (hours):
 
Tides and Currents Weather Stations Pressure Air Temp Water Temp Dewpoint Dewpoint Depression Visibility Wind Speed Wind Dir Waves Ship Positions

Paul R Tregurtha

Owner: THE INTERLAKE STEAMSHIP COMPANY, Middleburg Heights, OH. More information available from US FCC via Universal Licensing System and Coast Guard Vessel Documentation Center.

Last reported at 2017-Apr-27 17:00 UTC. Time now 2017-Apr-27 18:46 UTC.
Position N 45°24' W 083°24'.

Length 309 m; draft 7.1 m.

Type: Cargo ship. MMSI: 366904940.

Wind from 150 at 23 knots

Barometer 995.4 mb
Air temperature 11.1 ° C
Water temperature 2.8 ° C

Date/timePositionNaut miles runAvg speedWind from/ knotsBaromVisibWave heightAir tempDewpointWater temp
2017-Apr-27 17:00N 45°24' W 083°24'1514.7 150 / 23995.4 11.1 2.8
2017-Apr-27 16:00N 45°12' W 083°12'1312.7 150 / 26996.1 5.4 11.8 3.0
2017-Apr-27 15:00N 45°00' W 083°06'1312.7 150 / 13997.1 9.5 3.5
2017-Apr-27 14:00N 44°48' W 083°00'1312.7 170 / 18997.8 10.3 3.0
2017-Apr-27 13:00N 44°36' W 082°54'1312.7 170 / 21998.1 10.1 3.3
2017-Apr-27 12:00N 44°24' W 082°48'2512.7 170 / 17998.1 9.5 3.3
2017-Apr-27 10:00N 44°00' W 082°36'1312.8 160 / 17999.4 11.1 3.6
2017-Apr-27 09:00N 43°48' W 082°30'1818.0 170 / 14999.8 6.8 4.2
2017-Apr-27 08:00N 43°30' W 082°30'1312.8 160 / 141000.510.8 14.2 5.1
2017-Apr-27 07:00N 43°18' W 082°24'1212.0 170 / 131001.5 16.8 6.5
2017-Apr-27 06:00N 43°06' W 082°24'6 6.0 170 / 121001.5 15.2 6.4
2017-Apr-27 05:00N 43°00' W 082°24'1312.8 180 / 101002.2 18.4 7.8
2017-Apr-27 04:00N 42°48' W 082°30'6 6.0 170 / 91002.5 16.4 8.0
2017-Apr-27 03:00N 42°42' W 082°30'1312.8 130 / 91002.2 14.8 8.2
2017-Apr-27 02:00N 42°30' W 082°36'1110.7 130 / 131001.6 16.2 8.7
2017-Apr-27 01:00N 42°24' W 082°48'1110.7 150 / 141001.0 13.4 10.7
2017-Apr-27 00:00N 42°18' W 083°00'4 4.4 140 / 71001.0 21.5 12.6
2017-Apr-26 23:00N 42°18' W 083°06'0 0.0 130 / 31001.0 24.4 11.8
2017-Apr-26 22:00N 42°18' W 083°06'0 0.0 160 / 51001.3 25.8 11.8
2017-Apr-26 21:00N 42°18' W 083°06'6 6.0 150 / 51001.3 25.3 11.6
2017-Apr-26 20:00N 42°12' W 083°06'6 6.0 160 / 111001.6 23.0 11.8
2017-Apr-26 19:00N 42°06' W 083°06'1212.0 170 / 111001.9 15.4 12.0
2017-Apr-26 18:00N 41°54' W 083°06'9 8.9 130 / 201001.9 13.9 11.6
2017-Apr-26 17:00N 41°54' W 083°18'0 0.0 120 / 131003.6 16.2 13.4
2017-Apr-26 16:00N 41°54' W 083°18'0 0.0 140 / 31004.6 16.4 13.9
2017-Apr-26 15:00N 41°54' W 083°18'0 0.0 130 / 41005.6 17.7 13.9
2017-Apr-26 14:00N 41°54' W 083°18'0 0.0 130 / 31005.9 16.4 13.9
2017-Apr-26 13:00N 41°54' W 083°18'0 0.0 120 / 41005.9 15.7 13.8
2017-Apr-26 12:00N 41°54' W 083°18'0 0.0 060 / 41006.3 15.1 13.8
2017-Apr-26 11:00N 41°54' W 083°18'0 0.0 130 / 71005.9 14.7 13.9
2017-Apr-26 10:00N 41°54' W 083°18'0 0.0 240 / 21005.9 13.2 13.8
2017-Apr-26 09:00N 41°54' W 083°18'0 0.0 260 / 11005.9 13.5 13.8
2017-Apr-26 08:00N 41°54' W 083°18'0 0.0 150 / 61005.9 13.1 13.9
2017-Apr-26 07:00N 41°54' W 083°18'0 0.0 110 / 31006.3 14.5 13.7
2017-Apr-26 06:00N 41°54' W 083°18'9 8.9 100 / 141006.9 13.4 11.5
2017-Apr-26 05:00N 41°54' W 083°06'1212.0 060 / 41006.6 11.8 11.4
2017-Apr-26 04:00N 42°06' W 083°06'1212.0 080 / 31007.3 13.7 10.9
2017-Apr-26 03:00N 42°18' W 083°06'9 8.9 030 / 71007.4 13.3 11.0
2017-Apr-26 02:00N 42°18' W 082°54'1514.9 050 / 101007.4 14.2 10.4
2017-Apr-26 01:00N 42°30' W 082°42'7 7.5 090 / 121007.4 11.6 8.6
2017-Apr-26 00:00N 42°36' W 082°36'7 7.4 080 / 101007.9 16.4 7.8
2017-Apr-25 23:00N 42°42' W 082°30'6 6.0 030 / 31008.3 17.8 8.3
2017-Apr-25 22:00N 42°48' W 082°30'0 0.0 110 / 21008.6 20.6 10.2
2017-Apr-25 21:00N 42°48' W 082°30'0 0.0 1008.9 19.9 10.0
2017-Apr-25 20:00N 42°48' W 082°30'0 0.0 020 / 21009.3 19.4 10.4
2017-Apr-25 19:00N 42°48' W 082°30'0 0.0 320 / 31010.3 18.2 10.0
2017-Apr-25 18:00N 42°48' W 082°30'0 0.0 020 / 21011.0 16.6 9.9
2017-Apr-25 17:00N 42°48' W 082°30'0 0.0 280 / 21012.0 14.6 9.9
2017-Apr-25 16:00N 42°48' W 082°30'0 0.0 130 / 31012.7 12.8 9.8
2017-Apr-25 15:00N 42°48' W 082°30'0 0.0 1013.0 10.9 9.9
2017-Apr-25 14:00N 42°48' W 082°30'0 0.0 130 / 31013.0 11.8 10.0
2017-Apr-25 13:00N 42°48' W 082°30'0 0.0 340 / 31013.0 11.8 9.7
2017-Apr-25 12:00N 42°48' W 082°30'0 0.0 130 / 51013.0 11.2 9.6
2017-Apr-25 11:00N 42°48' W 082°30'7 7.4 040 / 31013.0 9.2 7.7
2017-Apr-25 10:00N 42°54' W 082°24'1212.0 060 / 71013.0 9.8 7.2
2017-Apr-25 09:00N 43°06' W 082°24'1212.0 020 / 71013.3 7.6 6.5
2017-Apr-25 08:00N 43°18' W 082°24'1212.0 030 / 61013.310.8 6.0 3.9
2017-Apr-25 07:00N 43°30' W 082°24'1212.0 080 / 61013.3 6.8 3.2
2017-Apr-25 06:00N 43°42' W 082°24'1212.0 120 / 51014.0 6.1 3.2
2017-Apr-25 05:00N 43°54' W 082°24'1312.8 150 / 61014.3 6.7 3.0
2017-Apr-25 04:00N 44°06' W 082°30'1312.7 150 / 91014.7 7.2 3.0
2017-Apr-25 03:00N 44°18' W 082°36'10912.1 120 / 81014.7 6.7 3.1
2017-Apr-24 18:00N 45°54' W 083°48'1010.3 110 / 71020.4 3.2 3.0
2017-Apr-24 17:00N 46°00' W 084°00'1312.7 080 / 101020.4 3.5 4.6
2017-Apr-24 16:00N 46°12' W 084°06'7 7.3 100 / 121021.1 3.2 4.3
2017-Apr-24 15:00N 46°18' W 084°12'6 6.0 140 / 111021.8 3.5 3.4
2017-Apr-24 14:00N 46°24' W 084°12'7 7.3 120 / 101021.8 2.0 2.9
2017-Apr-24 13:00N 46°30' W 084°18'4 4.1 130 / 121022.1 2.1 2.9
2017-Apr-24 12:00N 46°30' W 084°24'0 0.0 150 / 81023.0 2.1 3.0
2017-Apr-24 11:00N 46°30' W 084°24'4 4.1 130 / 71021.3 1.8 2.8
2017-Apr-24 10:00N 46°30' W 084°30'4 4.1 120 / 121020.3 1.8 2.1
2017-Apr-24 09:00N 46°30' W 084°36'1514.6 140 / 41021.0 1.4 1.4
2017-Apr-24 08:00N 46°42' W 084°48'1010.2 350 / 51021.3 0.8 1.4
2017-Apr-24 07:00N 46°48' W 085°00'1413.7 120 / 21021.7 0.8 2.1
2017-Apr-24 06:00N 46°54' W 085°18'1413.7 020 / 41021.7 0.6 2.3
2017-Apr-24 05:00N 47°00' W 085°36'6212.4 020 / 31022.0 0.5 2.6
2017-Apr-24 00:00N 47°24' W 087°00'1413.6 300 / 71022.7 -1.1 3.4
2017-Apr-23 23:00N 47°30' W 087°18'1413.5 300 / 51023.0 -1.3 3.1
2017-Apr-23 22:00N 47°36' W 087°36'1212.1 300 / 21023.4 -1.5 2.9
2017-Apr-23 21:00N 47°36' W 087°54'1212.1 070 / 21023.4 -1.6 3.1
2017-Apr-23 20:00N 47°36' W 088°12'1212.1 080 / 41023.7 -1.5 3.1
2017-Apr-23 19:00N 47°36' W 088°30'1413.5 060 / 61024.010.8 -1.4 3.1
2017-Apr-23 18:00N 47°30' W 088°48'1212.2 070 / 81024.0 -1.2 3.0
2017-Apr-23 17:00N 47°30' W 089°06'1413.6 070 / 101024.0 -1.2 2.9
2017-Apr-23 16:00N 47°24' W 089°24'1212.2 080 / 121023.710.8 -0.3 2.9
2017-Apr-23 15:00N 47°24' W 089°42'1212.2 020 / 71023.7 0.5 3.0
2017-Apr-23 14:00N 47°24' W 090°00'1413.6 040 / 81023.7 0.8 2.9
2017-Apr-23 13:00N 47°18' W 090°18'1212.2 060 / 101023.4 5.4 1.2 2.7
2017-Apr-23 12:00N 47°18' W 090°36'1010.1 290 / 41023.0 1.2 2.7
2017-Apr-23 11:00N 47°12' W 090°48'1413.6 060 / 151021.7 0.1 3.3
2017-Apr-23 10:00N 47°06' W 091°06'1413.7 040 / 61021.7 0.9 3.5
2017-Apr-23 09:00N 47°00' W 091°24'313.6 020 / 71021.3 2.5 3.4
2017-Apr-23 08:48N 46°60' W 091°28'412.4
2017-Apr-23 08:30N 46°58' W 091°33'612.4
2017-Apr-23 08:01N 46°55' W 091°41'2100.2
2017-Apr-23 08:00N 46°54' W 091°42'510.1 020 / 41020.7 4.2 3.4
2017-Apr-23 07:31N 46°53' W 091°49'612.4
2017-Apr-23 07:00N 46°50' W 091°57'3230.9
2017-Apr-23 07:00N 46°48' W 091°54'714.8 1020.3 7.0 3.6
2017-Apr-23 06:30N 46°47' W 092°04'2 4.6
2017-Apr-23 06:00N 46°45' W 092°06'3256.4
2017-Apr-23 06:00N 46°48' W 092°06'3 5.2 050 / 101019.0 8.7 9.2
2017-Apr-23 05:19N 46°45' W 092°07'3 8.0
2017-Apr-23 05:00N 46°42' W 092°06'315.5 010 / 41019.0 10.2 10.1
2017-Apr-23 04:49N 46°45' W 092°07'0 0.0
2017-Apr-23 04:22N 46°45' W 092°07'3 7.0
2017-Apr-23 04:00N 46°42' W 092°06'321.9 050 / 51019.0 11.8 10.4
2017-Apr-23 03:52N 46°45' W 092°07'0 0.0
2017-Apr-23 03:22N 46°45' W 092°07'3 7.0
2017-Apr-23 03:00N 46°42' W 092°06'315.5 040 / 61017.6 14.2 10.0
2017-Apr-23 02:49N 46°45' W 092°07'0 0.0
2017-Apr-23 02:22N 46°45' W 092°07'3 7.0
2017-Apr-23 02:00N 46°42' W 092°06'337.4 350 / 51017.6 16.0 10.1
2017-Apr-23 01:55N 46°45' W 092°07'0 0.0
2017-Apr-23 01:25N 46°45' W 092°07'3 6.2
2017-Apr-23 01:00N 46°42' W 092°06'337.0 160 / 51016.9 19.1 9.4
2017-Apr-23 00:55N 46°45' W 092°07'0 0.0
2017-Apr-23 00:25N 46°45' W 092°07'3 6.2
2017-Apr-23 00:00N 46°42' W 092°06'337.0 260 / 81016.9 20.4 9.3
2017-Apr-22 23:55N 46°45' W 092°07'0 0.0
2017-Apr-22 23:25N 46°45' W 092°07'3 6.2
2017-Apr-22 23:00N 46°42' W 092°06'3127.1 270 / 111017.610.8 21.1 9.1
2017-Apr-22 22:58N 46°45' W 092°07'0 0.0
2017-Apr-22 22:28N 46°45' W 092°07'0 0.0
2017-Apr-22 21:58N 46°45' W 092°07'0 0.0
2017-Apr-22 21:28N 46°45' W 092°07'0 0.0
2017-Apr-22 20:55N 46°45' W 092°07'0 0.0
2017-Apr-22 20:28N 46°45' W 092°07'0 0.0
2017-Apr-22 19:55N 46°45' W 092°07'0 0.0
2017-Apr-22 19:28N 46°45' W 092°07'0 0.0
2017-Apr-22 18:58N 46°45' W 092°07'1 2.0
2017-Apr-22 18:30N 46°45' W 092°06'2 3.5
2017-Apr-22 18:00N 46°47' W 092°06'612.2
2017-Apr-22 17:30N 46°49' W 091°57'713.1
2017-Apr-22 17:00N 46°52' W 091°48'713.1
2017-Apr-22 16:31N 46°54' W 091°39'713.0
2017-Apr-22 16:00N 46°56' W 091°30'  

Dump ship's entire track history